Time;durP1;ratioP1;P1;durP2;ratioP2;P2;SDS_P1;SDS_P2;PMS_P1;PMS_P2;Temp;Humidity;BMP_temperature;BMP_pressure;BME280_temperature;BME280_humidity;BME280_pressure;Samples;Min_cycle;Max_cycle;Signal;HPM_P1;HPM_P2
2023/12/29 00:00:11;;;;;;;;;;;;;;;18.93;54.35;101466.88;7395690;19;1780;-51
2023/12/29 00:02:39;;;;;;;;;;;;;;;19.12;54.21;101463.63;7395086;19;1725;-51
2023/12/29 00:05:08;;;;;;;;;;;;;;;19.25;53.73;101458.16;7393639;19;1880;-51
2023/12/29 00:07:36;;;;;;;;;;;;;;;19.06;54.04;101461.44;7395516;19;1730;-51
2023/12/29 00:10:05;;;;;;;;;;;;;;;18.83;54.75;101468.53;7395689;19;1141;-51
2023/12/29 00:12:33;;;;;;;;;;;;;;;18.74;54.96;101469.19;7391978;19;1472;-51
2023/12/29 00:15:04;;;;;;;;;;;;;;;18.77;55.01;101475.19;7393964;19;1327;-51
2023/12/29 00:17:34;;;;;;;;;;;;;;;18.98;54.35;101470.06;7394192;19;1164;-50
2023/12/29 00:20:03;;;;;;;;;;;;;;;19.28;53.59;101465.97;7394379;19;1378;-51
2023/12/29 00:22:31;;;;;;;;;;;;;;;19.38;53.52;101466.94;7394351;19;1270;-51
2023/12/29 00:24:59;;;;;;;;;;;;;;;19.57;52.97;101469.00;7395937;19;1853;-51
2023/12/29 00:27:28;;;;;;;;;;;;;;;19.70;52.43;101452.78;7394282;19;1425;-51
2023/12/29 00:29:56;;;;;;;;;;;;;;;19.84;52.21;101463.28;7394160;19;1820;-51
2023/12/29 00:32:27;;;;;;;;;;;;;;;19.81;52.29;101455.47;7390782;19;1855;-51
2023/12/29 00:34:55;;;;;;;;;;;;;;;19.86;52.11;101458.66;7395245;19;1337;-51
2023/12/29 00:37:24;;;;;;;;;;;;;;;19.96;52.01;101474.03;7395024;19;1058;-51
2023/12/29 00:39:52;;;;;;;;;;;;;;;19.96;51.97;101460.59;7393814;19;1527;-58
2023/12/29 00:42:20;;;;;;;;;;;;;;;19.89;52.13;101462.06;7392076;19;1594;-51
2023/12/29 00:44:49;;;;;;;;;;;;;;;19.91;51.81;101465.47;7394162;19;1862;-51
2023/12/29 00:47:19;;;;;;;;;;;;;;;19.91;51.93;101474.38;7394413;19;1609;-50
2023/12/29 00:49:50;;;;;;;;;;;;;;;19.96;52.07;101479.41;7395062;19;1030;-51
2023/12/29 00:52:18;;;;;;;;;;;;;;;19.97;51.85;101476.56;7379277;19;1786;-51
2023/12/29 00:54:46;;;;;;;;;;;;;;;20.00;51.71;101457.53;7393634;19;1578;-51
2023/12/29 00:57:15;;;;;;;;;;;;;;;19.98;51.78;101483.66;7393686;19;1947;-51
2023/12/29 00:59:43;;;;;;;;;;;;;;;20.00;51.96;101487.06;7393682;19;1749;-51
2023/12/29 01:02:12;;;;;;;;;;;;;;;20.04;51.77;101483.16;7393980;19;1824;-51
2023/12/29 01:04:41;;;;;;;;;;;;;;;20.00;51.87;101480.84;7392926;19;1830;-51
2023/12/29 01:07:12;;;;;;;;;;;;;;;20.07;51.77;101482.03;7389555;19;1980;-51
2023/12/29 01:09:40;;;;;;;;;;;;;;;20.00;51.76;101475.47;7391638;19;1347;-51
2023/12/29 01:12:09;;;;;;;;;;;;;;;20.03;51.79;101485.94;7391854;19;1463;-51
2023/12/29 01:14:37;;;;;;;;;;;;;;;20.04;51.78;101476.94;7393167;19;1410;-51
2023/12/29 01:17:06;;;;;;;;;;;;;;;20.04;51.74;101475.09;7394543;19;1022;-51
2023/12/29 01:19:34;;;;;;;;;;;;;;;20.06;51.63;101458.88;7393297;19;1018;-51
2023/12/29 01:22:02;;;;;;;;;;;;;;;20.11;51.61;101466.53;7392961;19;1571;-51
2023/12/29 01:24:33;;;;;;;;;;;;;;;20.00;51.80;101467.44;7393014;19;1867;-51
2023/12/29 01:27:04;;;;;;;;;;;;;;;19.99;51.77;101473.75;7390865;19;1862;-51
2023/12/29 01:29:32;;;;;;;;;;;;;;;19.96;51.91;101453.41;7393453;19;1121;-51
2023/12/29 01:32:01;;;;;;;;;;;;;;;19.98;51.83;101467.53;7392863;19;1967;-51
2023/12/29 01:34:32;;;;;;;;;;;;;;;20.02;51.74;101484.25;7392046;19;1517;-51
2023/12/29 01:37:00;;;;;;;;;;;;;;;19.96;51.59;101458.75;7392442;19;1559;-51
2023/12/29 01:39:28;;;;;;;;;;;;;;;20.01;51.76;101461.06;7392522;19;1737;-51
2023/12/29 01:42:00;;;;;;;;;;;;;;;20.05;51.51;101468.75;7392687;19;1171;-51
2023/12/29 01:44:29;;;;;;;;;;;;;;;20.00;51.89;101465.59;7392083;19;1690;-51
2023/12/29 01:46:59;;;;;;;;;;;;;;;20.01;51.55;101455.69;7391864;19;1849;-52
2023/12/29 01:49:27;;;;;;;;;;;;;;;20.01;51.76;101451.16;7391801;19;1541;-51
2023/12/29 01:51:57;;;;;;;;;;;;;;;20.00;51.67;101454.00;7375734;19;1917;-51
2023/12/29 01:54:27;;;;;;;;;;;;;;;19.94;51.80;101441.09;7390726;19;1429;-51
2023/12/29 01:56:57;;;;;;;;;;;;;;;19.95;51.72;101432.88;7391955;19;1721;-51
2023/12/29 01:59:28;;;;;;;;;;;;;;;20.04;51.56;101450.09;7391371;19;1623;-51
2023/12/29 02:01:58;;;;;;;;;;;;;;;19.96;51.81;101434.59;7391895;19;1334;-51
2023/12/29 02:04:26;;;;;;;;;;;;;;;20.01;51.71;101434.22;7390965;19;1354;-51
2023/12/29 02:06:55;;;;;;;;;;;;;;;19.95;51.64;101419.47;7389281;19;1862;-51
2023/12/29 02:09:23;;;;;;;;;;;;;;;19.94;51.90;101422.28;7389857;19;1662;-51
2023/12/29 02:11:51;;;;;;;;;;;;;;;19.96;51.64;101434.59;7391742;19;1491;-51
2023/12/29 02:14:21;;;;;;;;;;;;;;;20.00;51.42;101424.47;7392367;19;1102;-51
2023/12/29 02:16:55;;;;;;;;;;;;;;;19.73;52.11;101431.09;7392628;19;2090;-51
2023/12/29 02:19:38;;;;;;;;;;;;;;;19.25;53.52;101442.91;7391806;19;1434;-51
2023/12/29 02:22:06;;;;;;;;;;;;;;;19.01;54.01;101434.94;7398801;19;1780;-51
2023/12/29 02:24:36;;;;;;;;;;;;;;;18.93;54.29;101434.69;7398308;19;1434;-51
2023/12/29 02:27:10;;;;;;;;;;;;;;;18.88;54.46;101439.59;7395674;19;1858;-51
2023/12/29 02:29:41;;;;;;;;;;;;;;;18.90;54.50;101418.88;7397809;19;1350;-51
2023/12/29 02:32:12;;;;;;;;;;;;;;;18.94;54.36;101423.03;7399137;19;967;-51
2023/12/29 02:34:43;;;;;;;;;;;;;;;18.89;54.43;101419.84;7398830;19;1430;-51
2023/12/29 02:37:12;;;;;;;;;;;;;;;18.85;54.55;101413.84;7398887;19;1771;-51
2023/12/29 02:39:40;;;;;;;;;;;;;;;18.86;54.32;101420.06;7398344;19;1765;-51
2023/12/29 02:42:11;;;;;;;;;;;;;;;18.88;54.33;101410.09;7398886;19;1576;-51
2023/12/29 02:44:40;;;;;;;;;;;;;;;18.80;54.54;101415.16;7398261;19;1921;-51
2023/12/29 02:47:08;;;;;;;;;;;;;;;18.80;54.50;101421.41;7395493;19;1873;-51
2023/12/29 02:49:36;;;;;;;;;;;;;;;18.81;54.46;101406.19;7398839;19;1022;-51
2023/12/29 02:52:05;;;;;;;;;;;;;;;18.81;54.48;101404.34;7381666;19;1761;-51
2023/12/29 02:54:33;;;;;;;;;;;;;;;18.76;54.81;101413.66;7396964;19;1831;-50
2023/12/29 02:57:01;;;;;;;;;;;;;;;18.52;55.21;101405.69;7396858;19;1824;-52
2023/12/29 02:59:33;;;;;;;;;;;;;;;18.57;55.13;101407.06;7397699;19;1511;-51
2023/12/29 03:02:01;;;;;;;;;;;;;;;18.35;55.30;101412.34;7397490;19;1776;-51
2023/12/29 03:04:29;;;;;;;;;;;;;;;18.22;55.48;101404.34;7397403;19;1389;-51
2023/12/29 03:06:57;;;;;;;;;;;;;;;18.13;55.63;101397.03;7394615;19;1847;-50
2023/12/29 03:09:26;;;;;;;;;;;;;;;18.87;54.12;101405.69;7396148;19;1661;-51
2023/12/29 03:11:54;;;;;;;;;;;;;;;18.92;53.94;101403.53;7396952;19;1558;-53
2023/12/29 03:14:22;;;;;;;;;;;;;;;19.12;53.48;101393.03;7397978;19;1052;-51
2023/12/29 03:16:53;;;;;;;;;;;;;;;19.28;53.25;101397.09;7397903;19;1848;-52
2023/12/29 03:19:21;;;;;;;;;;;;;;;19.43;52.86;101395.00;7396609;19;1484;-51
2023/12/29 03:21:50;;;;;;;;;;;;;;;19.04;53.70;101383.81;7396104;19;1426;-50
2023/12/29 03:24:18;;;;;;;;;;;;;;;18.83;54.37;101382.78;7396850;19;1400;-51
2023/12/29 03:26:46;;;;;;;;;;;;;;;18.78;54.57;101375.09;7395216;19;1873;-50
2023/12/29 03:29:15;;;;;;;;;;;;;;;18.84;54.43;101380.00;7396707;19;1970;-51
2023/12/29 03:31:43;;;;;;;;;;;;;;;19.17;53.52;101382.81;7396125;19;1015;-50
2023/12/29 03:34:14;;;;;;;;;;;;;;;19.44;52.64;101386.00;7395478;19;1823;-50
2023/12/29 03:36:42;;;;;;;;;;;;;;;19.48;52.66;101382.09;7396550;19;1381;-51
2023/12/29 03:39:11;;;;;;;;;;;;;;;19.53;52.43;101389.75;7395653;19;1479;-50
2023/12/29 03:41:39;;;;;;;;;;;;;;;19.62;52.15;101380.97;7396069;19;1017;-50
2023/12/29 03:44:07;;;;;;;;;;;;;;;19.81;51.99;101368.75;7396079;19;1508;-51
2023/12/29 03:46:36;;;;;;;;;;;;;;;19.83;51.64;101370.31;7392514;19;1881;-51
2023/12/29 03:49:04;;;;;;;;;;;;;;;19.86;51.57;101367.41;7396104;19;1222;-50
2023/12/29 03:51:35;;;;;;;;;;;;;;;19.88;51.46;101361.06;7394419;19;1694;-51
2023/12/29 03:54:04;;;;;;;;;;;;;;;19.83;51.72;101370.31;7380223;19;1305;-51
2023/12/29 03:56:32;;;;;;;;;;;;;;;19.88;51.74;101367.28;7395569;19;1838;-51
2023/12/29 03:59:00;;;;;;;;;;;;;;;19.92;51.60;101371.41;7394585;19;1605;-50
2023/12/29 04:01:28;;;;;;;;;;;;;;;19.37;52.90;101376.72;7393064;19;1452;-51
2023/12/29 04:03:57;;;;;;;;;;;;;;;18.85;53.76;101370.13;7395262;19;1861;-51
2023/12/29 04:06:25;;;;;;;;;;;;;;;18.44;54.96;101376.81;7394181;19;1879;-51
2023/12/29 04:08:56;;;;;;;;;;;;;;;18.22;55.61;101364.19;7394301;19;1298;-51
2023/12/29 04:11:24;;;;;;;;;;;;;;;18.12;55.49;101365.88;7395838;19;1199;-50
2023/12/29 04:13:52;;;;;;;;;;;;;;;17.99;55.75;101372.16;7394369;19;1579;-50
2023/12/29 04:16:21;;;;;;;;;;;;;;;18.01;55.61;101372.88;7395019;19;1800;-50
2023/12/29 04:18:49;;;;;;;;;;;;;;;17.98;55.96;101374.94;7395290;19;1684;-50
2023/12/29 04:21:18;;;;;;;;;;;;;;;17.87;55.78;101363.19;7394116;19;1404;-50
2023/12/29 04:23:46;;;;;;;;;;;;;;;17.93;55.87;101369.06;7394255;19;1373;-50
2023/12/29 04:26:17;;;;;;;;;;;;;;;17.87;56.03;101376.59;7394209;19;1838;-50
2023/12/29 04:28:45;;;;;;;;;;;;;;;17.80;56.01;101377.94;7394069;19;1646;-50
2023/12/29 04:31:14;;;;;;;;;;;;;;;17.79;56.03;101370.91;7395594;19;1011;-50
2023/12/29 04:33:42;;;;;;;;;;;;;;;17.82;55.84;101370.66;7393458;19;1930;-51
2023/12/29 04:36:10;;;;;;;;;;;;;;;17.76;55.85;101376.47;7393561;19;1487;-51
2023/12/29 04:38:39;;;;;;;;;;;;;;;17.81;55.79;101381.50;7393392;19;1737;-51
2023/12/29 04:41:07;;;;;;;;;;;;;;;17.95;55.75;101377.84;7394886;19;1156;-50
2023/12/29 04:43:38;;;;;;;;;;;;;;;18.46;54.68;101381.09;7391451;19;1520;-51
2023/12/29 04:46:07;;;;;;;;;;;;;;;18.18;54.85;101368.94;7393651;19;1852;-50
2023/12/29 04:48:35;;;;;;;;;;;;;;;17.99;55.62;101373.97;7393606;19;1849;-50
2023/12/29 04:51:04;;;;;;;;;;;;;;;18.12;55.45;101387.28;7393167;19;1779;-50
2023/12/29 04:53:32;;;;;;;;;;;;;;;18.01;55.31;101380.06;7378852;19;1780;-50
2023/12/29 04:56:00;;;;;;;;;;;;;;;17.95;55.60;101377.84;7392768;19;1417;-50
2023/12/29 04:58:29;;;;;;;;;;;;;;;17.86;55.42;101371.34;7393317;19;1979;-51
2023/12/29 05:00:59;;;;;;;;;;;;;;;17.83;55.53;101360.84;7393096;19;1408;-50
2023/12/29 05:03:28;;;;;;;;;;;;;;;17.78;55.66;101363.00;7392837;19;1183;-50
2023/12/29 05:05:56;;;;;;;;;;;;;;;17.67;56.20;101371.81;7394050;19;1810;-50
2023/12/29 05:08:24;;;;;;;;;;;;;;;18.21;54.77;101358.00;7392333;19;1837;-51
2023/12/29 05:10:53;;;;;;;;;;;;;;;18.17;55.02;101359.22;7393698;19;1945;-51
2023/12/29 05:13:21;;;;;;;;;;;;;;;18.20;55.16;101367.00;7391650;19;1567;-50
2023/12/29 05:15:49;;;;;;;;;;;;;;;18.32;54.66;101361.69;7392108;19;1847;-51
2023/12/29 05:18:20;;;;;;;;;;;;;;;18.43;54.54;101359.06;7392304;19;1681;-50
2023/12/29 05:20:49;;;;;;;;;;;;;;;18.46;54.40;101361.47;7391524;19;1156;-51
2023/12/29 05:23:17;;;;;;;;;;;;;;;18.48;54.23;101351.50;7391320;19;1744;-51
2023/12/29 05:25:45;;;;;;;;;;;;;;;18.54;54.06;101356.38;7393637;19;1035;-50
2023/12/29 05:28:14;;;;;;;;;;;;;;;18.46;54.10;101350.78;7390631;19;1864;-51
2023/12/29 05:30:42;;;;;;;;;;;;;;;18.49;54.25;101355.91;7392457;19;1737;-50
2023/12/29 05:33:10;;;;;;;;;;;;;;;18.45;54.34;101370.50;7390329;19;1120;-50
2023/12/29 05:35:41;;;;;;;;;;;;;;;18.47;54.18;101353.34;7392737;19;1294;-50
2023/12/29 05:38:10;;;;;;;;;;;;;;;18.47;54.05;101349.81;7392398;19;1669;-51
2023/12/29 05:40:38;;;;;;;;;;;;;;;18.46;54.26;101359.69;7392145;19;1153;-51
2023/12/29 05:43:06;;;;;;;;;;;;;;;18.42;54.39;101374.28;7391123;19;1883;-51
2023/12/29 05:45:35;;;;;;;;;;;;;;;18.48;54.42;101375.59;7390554;19;1250;-50
2023/12/29 05:48:03;;;;;;;;;;;;;;;18.49;54.18;101375.50;7389670;19;1834;-50
2023/12/29 05:50:32;;;;;;;;;;;;;;;18.51;54.21;101367.34;7392310;19;1472;-50
2023/12/29 05:53:03;;;;;;;;;;;;;;;18.53;54.24;101378.81;7374961;19;1642;-50
2023/12/29 05:55:31;;;;;;;;;;;;;;;18.49;54.09;101385.38;7396259;19;1673;-50
2023/12/29 05:57:59;;;;;;;;;;;;;;;18.51;54.23;101372.72;7399633;19;1567;-50
2023/12/29 06:00:28;;;;;;;;;;;;;;;18.54;53.87;101368.94;7400303;19;1819;-51
2023/12/29 06:02:56;;;;;;;;;;;;;;;18.52;54.13;101386.94;7399615;19;1030;-50
2023/12/29 06:05:24;;;;;;;;;;;;;;;18.46;54.24;101378.44;7399824;19;1823;-50
2023/12/29 06:07:53;;;;;;;;;;;;;;;18.50;53.89;101373.66;7397254;19;1859;-50
2023/12/29 06:10:24;;;;;;;;;;;;;;;18.51;54.02;101372.72;7399455;19;1828;-50
2023/12/29 06:12:53;;;;;;;;;;;;;;;18.54;53.84;101368.94;7399443;19;1750;-50
2023/12/29 06:15:21;;;;;;;;;;;;;;;18.52;54.15;101387.78;7397157;19;1456;-50
2023/12/29 06:17:50;;;;;;;;;;;;;;;18.46;54.18;101372.19;7399176;19;1904;-50
2023/12/29 06:20:18;;;;;;;;;;;;;;;18.50;53.93;101379.00;7399244;19;1718;-50
2023/12/29 06:22:47;;;;;;;;;;;;;;;18.53;54.20;101376.13;7397950;19;1724;-50
2023/12/29 06:25:15;;;;;;;;;;;;;;;18.55;53.90;101379.53;7395795;19;1741;-51
2023/12/29 06:27:46;;;;;;;;;;;;;;;18.55;53.80;101376.00;7397668;19;1859;-50
2023/12/29 06:30:15;;;;;;;;;;;;;;;18.57;54.10;101366.88;7399119;19;1018;-51
2023/12/29 06:32:46;;;;;;;;;;;;;;;18.56;54.06;101386.63;7394703;19;1870;-51
2023/12/29 06:35:15;;;;;;;;;;;;;;;18.63;53.79;101387.81;7398693;19;1661;-50
2023/12/29 06:37:43;;;;;;;;;;;;;;;18.66;53.74;101386.72;7398330;19;1649;-50
2023/12/29 06:40:12;;;;;;;;;;;;;;;18.66;53.56;101382.25;7400008;19;1125;-51
2023/12/29 06:42:40;;;;;;;;;;;;;;;18.56;53.90;101394.66;7397305;19;1831;-51
2023/12/29 06:45:11;;;;;;;;;;;;;;;18.55;53.96;101400.97;7399091;19;1598;-50
2023/12/29 06:47:40;;;;;;;;;;;;;;;18.61;53.77;101396.97;7395800;19;1846;-50
2023/12/29 06:50:12;;;;;;;;;;;;;;;18.67;53.79;101389.31;7399408;19;1674;-50
2023/12/29 06:52:40;;;;;;;;;;;;;;;18.58;53.81;101387.34;7391018;19;1235;-50
2023/12/29 06:55:09;;;;;;;;;;;;;;;18.67;53.82;101385.78;7393542;19;1010;-50
2023/12/29 06:57:38;;;;;;;;;;;;;;;18.65;53.90;101385.88;7399763;19;1914;-50
2023/12/29 07:00:07;;;;;;;;;;;;;;;18.41;54.18;101402.00;7398491;19;1843;-50
2023/12/29 07:02:39;;;;;;;;;;;;;;;18.16;54.76;101389.59;7396979;19;1527;-50
2023/12/29 07:05:08;;;;;;;;;;;;;;;18.16;54.57;101378.91;7396692;19;1554;-51
2023/12/29 07:07:37;;;;;;;;;;;;;;;17.76;55.32;101392.53;7396059;19;1894;-50
2023/12/29 07:10:06;;;;;;;;;;;;;;;17.69;55.96;101393.97;7396276;19;1200;-51
2023/12/29 07:12:34;;;;;;;;;;;;;;;17.79;55.49;101381.63;7396453;19;1726;-51
2023/12/29 07:15:02;;;;;;;;;;;;;;;18.00;55.15;101378.34;7396249;19;1444;-50
2023/12/29 07:17:31;;;;;;;;;;;;;;;18.05;55.08;101378.88;7397191;19;1729;-50
2023/12/29 07:20:02;;;;;;;;;;;;;;;18.01;55.24;101380.06;7397144;19;1385;-56
2023/12/29 07:22:31;;;;;;;;;;;;;;;18.04;55.19;101393.19;7397275;19;1720;-51
2023/12/29 07:25:00;;;;;;;;;;;;;;;18.04;55.15;101385.16;7397723;19;1030;-50
2023/12/29 07:27:28;;;;;;;;;;;;;;;18.01;55.12;101375.56;7392772;19;1863;-50
2023/12/29 07:29:57;;;;;;;;;;;;;;;17.96;55.35;101376.88;7396591;19;1448;-50
2023/12/29 07:32:25;;;;;;;;;;;;;;;17.85;55.38;101375.00;7396333;19;1124;-51
2023/12/29 07:34:53;;;;;;;;;;;;;;;17.81;55.74;101363.63;7397288;19;963;-50
2023/12/29 07:37:24;;;;;;;;;;;;;;;17.72;55.61;101361.63;7396633;19;1413;-50
2023/12/29 07:39:53;;;;;;;;;;;;;;;17.84;55.61;101363.41;7396159;19;1888;-51
2023/12/29 07:42:21;;;;;;;;;;;;;;;18.21;54.94;101355.31;7393549;19;1907;-51
2023/12/29 07:44:51;;;;;;;;;;;;;;;18.42;54.47;101365.38;7395666;19;1281;-51
2023/12/29 07:47:19;;;;;;;;;;;;;;;18.31;54.01;101328.72;7392990;19;1856;-51
2023/12/29 07:49:48;;;;;;;;;;;;;;;18.58;54.15;101368.59;7398408;19;952;-51
2023/12/29 07:52:16;;;;;;;;;;;;;;;18.58;54.09;101363.25;7396144;19;1035;-51
2023/12/29 07:54:48;;;;;;;;;;;;;;;18.33;54.79;101372.28;7380794;19;1400;-51
2023/12/29 07:57:17;;;;;;;;;;;;;;;18.14;55.33;101362.09;7396007;19;1875;-51
2023/12/29 07:59:45;;;;;;;;;;;;;;;18.02;55.44;101360.34;7392676;19;1907;-50
2023/12/29 08:02:13;;;;;;;;;;;;;;;17.94;55.51;101365.41;7393980;19;1791;-51
2023/12/29 08:04:42;;;;;;;;;;;;;;;17.89;55.89;101361.25;7395383;19;1499;-51
2023/12/29 08:07:10;;;;;;;;;;;;;;;17.87;55.72;101365.88;7395445;19;1859;-51
2023/12/29 08:09:38;;;;;;;;;;;;;;;17.84;55.96;101363.41;7394205;19;1188;-51
2023/12/29 08:12:10;;;;;;;;;;;;;;;17.80;56.09;101372.59;7394408;19;1897;-51
2023/12/29 08:14:38;;;;;;;;;;;;;;;17.76;56.07;101357.75;7395405;19;1401;-51
2023/12/29 08:17:07;;;;;;;;;;;;;;;17.95;55.60;101386.72;7393772;19;1023;-51
2023/12/29 08:19:35;;;;;;;;;;;;;;;18.24;55.30;101376.53;7396733;19;1041;-51
2023/12/29 08:22:03;;;;;;;;;;;;;;;18.25;55.01;101372.84;7395474;19;1840;-51
2023/12/29 08:24:31;;;;;;;;;;;;;;;18.13;55.25;101387.16;7393601;19;1520;-51
2023/12/29 08:27:00;;;;;;;;;;;;;;;18.08;55.59;101381.28;7395284;19;1674;-53
2023/12/29 08:29:31;;;;;;;;;;;;;;;18.02;55.82;101389.78;7390999;19;1874;-51
2023/12/29 08:31:59;;;;;;;;;;;;;;;17.93;55.92;101393.16;7395663;19;955;-51
2023/12/29 08:34:27;;;;;;;;;;;;;;;17.89;55.99;101388.03;7393520;19;1886;-51
2023/12/29 08:36:56;;;;;;;;;;;;;;;17.89;55.87;101382.66;7392443;19;1797;-51
2023/12/29 08:39:24;;;;;;;;;;;;;;;17.83;55.95;101383.13;7394255;19;1838;-51
2023/12/29 08:41:52;;;;;;;;;;;;;;;17.79;56.17;101392.31;7394065;19;2031;-51
2023/12/29 08:44:21;;;;;;;;;;;;;;;17.78;56.38;101400.44;7394448;19;1117;-51
2023/12/29 08:46:52;;;;;;;;;;;;;;;18.08;55.73;101402.72;7392302;19;1879;-51
2023/12/29 08:49:21;;;;;;;;;;;;;;;18.49;54.76;101425.53;7393269;19;1837;-51
2023/12/29 08:51:49;;;;;;;;;;;;;;;18.42;55.16;101410.88;7393267;19;1555;-50
2023/12/29 08:54:17;;;;;;;;;;;;;;;18.23;55.41;101406.94;7378709;19;1765;-51
2023/12/29 08:56:46;;;;;;;;;;;;;;;18.08;55.93;101410.75;7394033;19;1777;-51
2023/12/29 08:59:14;;;;;;;;;;;;;;;18.05;55.92;101413.66;7394833;19;1097;-51
2023/12/29 09:01:42;;;;;;;;;;;;;;;17.98;56.20;101412.38;7394367;19;1787;-51
2023/12/29 09:04:13;;;;;;;;;;;;;;;17.97;56.03;101413.38;7393189;19;1955;-51
2023/12/29 09:06:42;;;;;;;;;;;;;;;17.93;55.97;101407.38;7392924;19;1925;-51
2023/12/29 09:09:12;;;;;;;;;;;;;;;17.84;56.19;101411.56;7393362;19;1869;-51
2023/12/29 09:11:42;;;;;;;;;;;;;;;17.86;56.22;101404.28;7394558;19;988;-51
2023/12/29 09:14:11;;;;;;;;;;;;;;;18.02;56.19;101404.00;7394079;19;1516;-51
2023/12/29 09:16:40;;;;;;;;;;;;;;;18.42;55.26;101410.88;7392571;19;1934;-51
2023/12/29 09:19:08;;;;;;;;;;;;;;;18.51;55.00;101420.91;7393196;19;1827;-51
2023/12/29 09:21:39;;;;;;;;;;;;;;;18.32;55.21;101405.38;7393070;19;1409;-51
2023/12/29 09:24:08;;;;;;;;;;;;;;;18.17;55.62;101402.03;7393120;19;1798;-51
2023/12/29 09:26:36;;;;;;;;;;;;;;;18.14;55.88;101404.94;7392298;19;1706;-51
2023/12/29 09:29:04;;;;;;;;;;;;;;;18.14;55.92;101404.09;7391219;19;1839;-51
2023/12/29 09:31:32;;;;;;;;;;;;;;;17.99;56.11;101398.91;7391963;19;1789;-51
2023/12/29 09:34:01;;;;;;;;;;;;;;;17.94;56.10;101418.94;7392893;19;1451;-51
2023/12/29 09:36:29;;;;;;;;;;;;;;;17.95;56.26;101412.63;7391926;19;1927;-51
2023/12/29 09:39:00;;;;;;;;;;;;;;;17.90;56.30;101386.19;7392373;19;1756;-51
2023/12/29 09:41:30;;;;;;;;;;;;;;;17.89;56.51;101380.00;7393907;19;1129;-51
2023/12/29 09:43:59;;;;;;;;;;;;;;;17.85;56.42;101385.69;7392175;19;1532;-51
2023/12/29 09:46:30;;;;;;;;;;;;;;;18.04;56.08;101385.16;7391168;19;1571;-51
2023/12/29 09:49:00;;;;;;;;;;;;;;;18.53;55.21;101383.31;7391310;19;1878;-51
2023/12/29 09:51:29;;;;;;;;;;;;;;;18.55;54.93;101387.56;7391484;19;1802;-51
2023/12/29 09:54:00;;;;;;;;;;;;;;;18.34;55.30;101373.13;7376653;19;1406;-50
2023/12/29 09:56:29;;;;;;;;;;;;;;;18.22;55.82;101377.59;7391690;19;1385;-51
2023/12/29 09:58:59;;;;;;;;;;;;;;;18.11;55.98;101381.09;7391407;19;1787;-51
2023/12/29 10:01:29;;;;;;;;;;;;;;;18.03;56.20;101362.06;7390274;19;1759;-51
2023/12/29 10:03:57;;;;;;;;;;;;;;;18.05;56.38;101378.88;7392163;19;1416;-51
2023/12/29 10:06:27;;;;;;;;;;;;;;;18.04;56.20;101374.47;7391688;19;1725;-51
2023/12/29 10:08:55;;;;;;;;;;;;;;;18.00;56.39;101362.28;7390469;19;1843;-51
2023/12/29 10:11:26;;;;;;;;;;;;;;;18.04;56.31;101359.25;7392819;19;1046;-51
2023/12/29 10:13:56;;;;;;;;;;;;;;;17.98;56.34;101356.19;7391870;19;1922;-51
2023/12/29 10:16:30;;;;;;;;;;;;;;;17.89;56.41;101353.25;7391427;19;1895;-51
2023/12/29 10:19:03;;;;;;;;;;;;;;;18.03;56.25;101359.41;7391623;19;1410;-51
2023/12/29 10:21:32;;;;;;;;;;;;;;;18.43;55.37;101343.00;7392029;19;1732;-51
2023/12/29 10:24:03;;;;;;;;;;;;;;;18.47;55.17;101349.81;7391900;19;1610;-51
2023/12/29 10:26:34;;;;;;;;;;;;;;;18.36;55.68;101337.22;7390200;19;1374;-51
2023/12/29 10:29:03;;;;;;;;;;;;;;;18.28;55.47;101334.28;7388979;19;1851;-51
2023/12/29 10:31:31;;;;;;;;;;;;;;;18.07;55.79;101321.56;7391012;19;1265;-51
2023/12/29 10:34:14;;;;;;;;;;;;;;;18.13;55.97;101325.63;7390554;19;1496;-51
2023/12/29 10:36:50;;;;;;;;;;;;;;;18.15;55.89;101336.22;7390593;19;1680;-51
2023/12/29 10:39:19;;;;;;;;;;;;;;;18.19;55.83;101335.00;7391194;19;1969;-51
2023/12/29 10:41:50;;;;;;;;;;;;;;;18.13;55.73;101330.13;7396691;19;1086;-51
2023/12/29 10:44:18;;;;;;;;;;;;;;;18.15;55.86;101329.03;7399523;19;1213;-51
2023/12/29 10:46:47;;;;;;;;;;;;;;;18.12;55.96;101323.03;7398486;19;1768;-51
2023/12/29 10:49:16;;;;;;;;;;;;;;;18.06;56.16;101313.66;7396446;19;1844;-51
2023/12/29 10:51:44;;;;;;;;;;;;;;;18.01;56.28;101310.47;7397569;19;1979;-51
2023/12/29 10:54:22;;;;;;;;;;;;;;;17.97;56.43;101298.31;7383451;19;1429;-51
2023/12/29 10:57:02;;;;;;;;;;;;;;;18.06;56.21;101309.19;7397748;19;1845;-51
2023/12/29 10:59:31;;;;;;;;;;;;;;;18.41;55.62;101292.22;7397889;19;1361;-51
2023/12/29 11:02:03;;;;;;;;;;;;;;;18.38;55.57;101292.47;7397549;19;1318;-51
2023/12/29 11:04:31;;;;;;;;;;;;;;;18.24;55.87;101273.91;7397226;19;1500;-51
2023/12/29 11:07:00;;;;;;;;;;;;;;;18.21;55.94;101314.31;7396666;19;1310;-51
2023/12/29 11:09:31;;;;;;;;;;;;;;;18.10;56.32;101299.06;7395390;19;1854;-51
2023/12/29 11:12:03;;;;;;;;;;;;;;;18.06;56.31;101297.59;7396277;19;1397;-51
2023/12/29 11:14:32;;;;;;;;;;;;;;;18.02;56.49;101293.44;7398169;19;1480;-51
2023/12/29 11:17:01;;;;;;;;;;;;;;;17.98;56.48;101271.41;7398058;19;1324;-51
2023/12/29 11:19:29;;;;;;;;;;;;;;;17.95;56.31;101274.34;7397787;19;1824;-51
2023/12/29 11:21:58;;;;;;;;;;;;;;;18.00;56.39;101269.47;7397651;19;1922;-50
2023/12/29 11:24:27;;;;;;;;;;;;;;;18.01;56.21;101270.34;7396807;19;1824;-50
2023/12/29 11:26:55;;;;;;;;;;;;;;;17.93;56.56;101275.44;7397087;19;1752;-51
2023/12/29 11:29:27;;;;;;;;;;;;;;;17.96;56.49;101270.69;7396077;19;1880;-51
2023/12/29 11:31:56;;;;;;;;;;;;;;;17.89;56.62;101274.81;7397352;19;1006;-51
2023/12/29 11:34:27;;;;;;;;;;;;;;;18.05;56.51;101269.13;7396345;19;1476;-51
2023/12/29 11:36:59;;;;;;;;;;;;;;;18.40;55.55;101276.25;7396416;19;1754;-51
2023/12/29 11:39:33;;;;;;;;;;;;;;;18.31;55.91;101258.25;7396662;19;1752;-51
2023/12/29 11:42:04;;;;;;;;;;;;;;;18.23;55.96;101257.00;7396663;19;1918;-51
2023/12/29 11:44:36;;;;;;;;;;;;;;;18.15;56.08;101259.44;7396342;19;1729;-50
2023/12/29 11:47:04;;;;;;;;;;;;;;;18.13;56.30;101249.81;7396916;19;991;-51
2023/12/29 11:50:00;;;;;;;;;;;;;;;18.05;56.31;101237.88;7395262;19;1836;-51
2023/12/29 11:52:35;;;;;;;;;;;;;;;18.05;56.44;101256.59;7396838;19;1567;-51
2023/12/29 11:55:12;;;;;;;;;;;;;;;17.97;56.39;101253.66;7381764;19;1015;-51
2023/12/29 11:57:41;;;;;;;;;;;;;;;18.01;56.47;101262.31;7396464;19;1113;-51
2023/12/29 12:00:13;;;;;;;;;;;;;;;17.93;56.40;101232.63;7395763;19;1875;-51
2023/12/29 12:02:41;;;;;;;;;;;;;;;17.91;56.49;101247.94;7395575;19;1524;-51
2023/12/29 12:05:12;;;;;;;;;;;;;;;17.82;56.65;101244.94;7394574;19;1425;-51
2023/12/29 12:07:56;;;;;;;;;;;;;;;17.81;56.74;101237.03;7395438;19;1658;-51
2023/12/29 12:10:32;;;;;;;;;;;;;;;17.79;56.78;101241.66;7392972;19;1850;-51
2023/12/29 12:13:02;;;;;;;;;;;;;;;17.94;57.18;101253.88;7395965;19;1867;-51
2023/12/29 12:15:41;;;;;;;;;;;;;;;18.31;56.01;101228.81;7394361;19;1788;-51
2023/12/29 12:18:13;;;;;;;;;;;;;;;18.25;56.04;101222.94;7393897;19;1417;-51
2023/12/29 12:20:41;;;;;;;;;;;;;;;18.14;55.94;101236.28;7394130;19;1350;-51
2023/12/29 12:23:13;;;;;;;;;;;;;;;17.98;56.46;101214.38;7395569;19;1796;-51
2023/12/29 12:25:42;;;;;;;;;;;;;;;17.89;56.59;101219.47;7393193;19;1857;-51
2023/12/29 12:28:13;;;;;;;;;;;;;;;17.82;56.86;101231.56;7394466;19;1468;-51
2023/12/29 12:30:44;;;;;;;;;;;;;;;17.79;56.92;101215.75;7393437;19;1859;-51
2023/12/29 12:33:13;;;;;;;;;;;;;;;17.76;57.05;101223.16;7392043;19;1496;-51
2023/12/29 12:35:44;;;;;;;;;;;;;;;17.73;57.12;101218.91;7394761;19;1326;-50
2023/12/29 12:38:13;;;;;;;;;;;;;;;17.72;57.04;101221.69;7394201;19;1318;-50
2023/12/29 12:40:41;;;;;;;;;;;;;;;17.65;57.24;101227.50;7394839;19;1116;-51
2023/12/29 12:43:10;;;;;;;;;;;;;;;17.64;57.30;101215.06;7393247;19;1831;-51
2023/12/29 12:45:43;;;;;;;;;;;;;;;17.64;57.59;101222.25;7392503;19;1326;-51
2023/12/29 12:48:16;;;;;;;;;;;;;;;17.98;56.86;101214.38;7393058;19;1700;-51
2023/12/29 12:50:45;;;;;;;;;;;;;;;18.19;56.36;101223.41;7393100;19;1881;-51
2023/12/29 12:53:20;;;;;;;;;;;;;;;18.13;56.41;101228.41;7393798;19;1479;-51
2023/12/29 12:55:50;;;;;;;;;;;;;;;17.92;56.55;101220.19;7378718;19;1475;-51
2023/12/29 12:58:18;;;;;;;;;;;;;;;17.81;56.69;101207.63;7393405;19;1592;-51